createdAt,value
2023-03-07T00:01:34.265Z,93.30
2023-03-07T00:04:01.474Z,93.30
2023-03-07T00:06:29.381Z,93.30
2023-03-07T00:09:00.781Z,93.30
2023-03-07T00:11:28.934Z,93.40
2023-03-07T00:13:56.118Z,93.50
2023-03-07T00:16:25.210Z,93.50
2023-03-07T00:18:52.534Z,93.50
2023-03-07T00:21:22.896Z,93.30
2023-03-07T00:23:53.119Z,93.30
2023-03-07T00:26:25.446Z,93.20
2023-03-07T00:28:55.425Z,93.20
2023-03-07T00:31:24.086Z,93.20
2023-03-07T00:33:51.076Z,93.30
2023-03-07T00:36:22.330Z,93.30
2023-03-07T00:38:50.681Z,93.30
2023-03-07T00:41:27.772Z,93.30
2023-03-07T00:43:56.240Z,93.30
2023-03-07T00:46:26.045Z,93.30
2023-03-07T00:48:53.656Z,93.30
2023-03-07T00:51:23.418Z,93.30
2023-03-07T00:53:51.512Z,93.30
2023-03-07T00:56:25.788Z,93.20
2023-03-07T00:58:53.408Z,93.20
2023-03-07T01:01:24.993Z,93.10
2023-03-07T01:03:53.591Z,93.10
2023-03-07T01:06:26.716Z,93.10
2023-03-07T01:08:58.014Z,93.00
2023-03-07T01:11:27.216Z,93.00
2023-03-07T01:14:00.160Z,93.00
2023-03-07T01:16:33.086Z,92.90
2023-03-07T01:19:06.533Z,92.90
2023-03-07T01:21:39.362Z,92.80
2023-03-07T01:24:12.526Z,92.80
2023-03-07T01:26:39.466Z,92.80
2023-03-07T01:29:08.272Z,92.70
2023-03-07T01:31:35.800Z,92.60
2023-03-07T01:34:04.636Z,92.60
2023-03-07T01:36:35.360Z,92.60
2023-03-07T01:39:10.288Z,92.70
2023-03-07T01:41:38.381Z,92.70
2023-03-07T01:44:20.788Z,92.80
2023-03-07T01:46:54.264Z,92.80
2023-03-07T01:49:45.982Z,92.80
2023-03-07T01:52:29.780Z,92.90
2023-03-07T01:55:18.376Z,93.00
2023-03-07T01:57:50.590Z,93.00
2023-03-07T02:00:31.073Z,93.00
2023-03-07T02:03:44.059Z,93.10
2023-03-07T02:06:13.157Z,93.10
2023-03-07T02:08:43.516Z,93.20
2023-03-07T02:11:12.376Z,93.20
2023-03-07T02:13:39.413Z,93.20
2023-03-07T02:16:08.590Z,93.20
2023-03-07T02:18:45.792Z,93.10
2023-03-07T02:21:47.358Z,93.10
2023-03-07T02:24:34.398Z,93.20
2023-03-07T02:27:01.409Z,93.10
2023-03-07T02:29:28.267Z,93.10
2023-03-07T02:31:55.136Z,93.10
2023-03-07T02:34:28.873Z,92.90
2023-03-07T02:37:06.243Z,92.70
2023-03-07T02:39:34.441Z,92.60
2023-03-07T02:42:10.615Z,92.60
2023-03-07T02:44:37.563Z,92.60
2023-03-07T02:47:08.722Z,92.50
2023-03-07T02:49:36.282Z,92.40
2023-03-07T02:52:04.080Z,92.40
2023-03-07T02:54:30.940Z,92.30
2023-03-07T02:56:58.144Z,92.30
2023-03-07T02:59:25.017Z,92.30
2023-03-07T03:01:52.002Z,92.30
2023-03-07T03:04:19.031Z,92.20
2023-03-07T03:06:45.988Z,92.10
2023-03-07T03:09:12.888Z,91.80
2023-03-07T03:11:39.862Z,91.80
2023-03-07T03:14:06.742Z,91.80
2023-03-07T03:16:33.664Z,91.70
2023-03-07T03:19:01.216Z,91.70
2023-03-07T03:21:28.185Z,91.60
2023-03-07T03:23:55.080Z,91.50
2023-03-07T03:26:22.016Z,91.40
2023-03-07T03:28:49.078Z,91.40
2023-03-07T03:31:16.114Z,91.40
2023-03-07T03:33:44.691Z,91.40
2023-03-07T03:36:17.025Z,91.40
2023-03-07T03:38:44.251Z,91.50
2023-03-07T03:41:17.608Z,91.60
2023-03-07T03:43:44.536Z,91.90
2023-03-07T03:46:11.684Z,92.00
2023-03-07T03:48:39.155Z,92.20
2023-03-07T03:51:14.386Z,92.30
2023-03-07T03:53:41.538Z,92.40
2023-03-07T03:56:17.102Z,92.50
2023-03-07T03:58:47.447Z,92.50
2023-03-07T04:01:14.393Z,92.60
2023-03-07T04:03:47.301Z,92.60
2023-03-07T04:06:20.878Z,92.80
2023-03-07T04:08:48.195Z,92.90
2023-03-07T04:11:15.827Z,93.10
2023-03-07T04:13:42.812Z,93.00
2023-03-07T04:16:10.640Z,92.90
2023-03-07T04:18:38.395Z,93.00
2023-03-07T04:21:06.428Z,92.80
2023-03-07T04:23:34.429Z,92.70
2023-03-07T04:26:06.295Z,92.60
2023-03-07T04:28:49.300Z,92.40
2023-03-07T04:31:19.586Z,92.30
2023-03-07T04:33:48.117Z,92.20
2023-03-07T04:36:16.994Z,92.20
2023-03-07T04:38:46.897Z,92.10
2023-03-07T04:41:28.808Z,91.80
2023-03-07T04:43:55.954Z,91.80
2023-03-07T04:46:23.122Z,91.90
2023-03-07T04:48:49.967Z,91.80
2023-03-07T04:51:16.931Z,91.90
2023-03-07T04:53:44.032Z,91.60
2023-03-07T04:56:11.369Z,91.70
2023-03-07T04:58:38.769Z,91.60
2023-03-07T05:01:06.255Z,91.60
2023-03-07T05:03:34.934Z,91.60
2023-03-07T05:06:12.668Z,91.60
2023-03-07T05:08:39.678Z,91.50
2023-03-07T05:11:07.057Z,91.50
2023-03-07T05:13:33.931Z,91.50
2023-03-07T05:16:01.158Z,91.40
2023-03-07T05:18:28.914Z,91.30
2023-03-07T05:20:55.963Z,91.30
2023-03-07T05:23:23.693Z,91.30
2023-03-07T05:25:51.073Z,91.30
2023-03-07T05:28:18.942Z,91.30
2023-03-07T05:30:47.561Z,91.30
2023-03-07T05:33:15.073Z,91.20
2023-03-07T05:35:42.223Z,91.20
2023-03-07T05:38:10.108Z,91.20
2023-03-07T05:40:37.393Z,91.20
2023-03-07T05:43:04.846Z,91.40
2023-03-07T05:45:32.069Z,91.60
2023-03-07T05:47:58.933Z,91.60
2023-03-07T05:50:25.998Z,91.60
2023-03-07T05:52:53.024Z,91.60
2023-03-07T05:55:20.204Z,91.60
2023-03-07T05:57:47.132Z,91.60
2023-03-07T06:00:15.884Z,91.70
2023-03-07T06:02:42.822Z,91.80
2023-03-07T06:05:10.249Z,91.80
2023-03-07T06:07:37.355Z,91.90
2023-03-07T06:10:05.029Z,91.90
2023-03-07T06:12:31.884Z,91.90
2023-03-07T06:14:58.958Z,91.90
2023-03-07T06:17:25.834Z,91.90
2023-03-07T06:19:52.691Z,92.00
2023-03-07T06:22:19.558Z,92.00
2023-03-07T06:24:46.452Z,91.90
2023-03-07T06:27:13.646Z,91.90
2023-03-07T06:29:40.615Z,92.00
2023-03-07T06:32:07.760Z,92.00
2023-03-07T06:34:34.791Z,92.10
2023-03-07T06:37:01.684Z,92.10
2023-03-07T06:39:31.201Z,92.10
2023-03-07T06:41:58.270Z,92.10
2023-03-07T06:44:25.319Z,91.90
2023-03-07T06:46:52.168Z,91.90
2023-03-07T06:49:19.044Z,91.90
2023-03-07T06:51:45.950Z,91.80
2023-03-07T06:54:12.840Z,91.80
2023-03-07T06:56:39.742Z,91.70
2023-03-07T06:59:06.667Z,92.00
2023-03-07T07:01:35.535Z,91.70
2023-03-07T07:04:03.298Z,91.70
2023-03-07T07:06:30.665Z,91.70
2023-03-07T07:08:59.159Z,91.60
2023-03-07T07:11:27.440Z,91.40
2023-03-07T07:13:54.345Z,91.40
2023-03-07T07:16:21.427Z,91.30
2023-03-07T07:18:51.947Z,91.40
2023-03-07T07:21:19.896Z,91.40
2023-03-07T07:23:46.867Z,91.20
2023-03-07T07:26:13.707Z,91.10
2023-03-07T07:28:40.587Z,91.00
2023-03-07T07:31:07.888Z,90.90
2023-03-07T07:33:35.096Z,90.80
2023-03-07T07:36:01.995Z,90.60
2023-03-07T07:38:28.901Z,90.50
2023-03-07T07:40:56.259Z,90.50
2023-03-07T07:43:23.159Z,90.30
2023-03-07T07:45:50.090Z,90.40
2023-03-07T07:48:17.048Z,90.00
2023-03-07T07:50:43.962Z,90.10
2023-03-07T07:53:10.845Z,90.20
2023-03-07T07:55:37.999Z,90.10
2023-03-07T07:58:05.604Z,90.00
2023-03-07T08:00:32.582Z,90.00
2023-03-07T08:03:00.095Z,90.00
2023-03-07T08:05:27.227Z,90.00
2023-03-07T08:07:54.240Z,89.50
2023-03-07T08:10:21.707Z,89.60
2023-03-07T08:12:51.681Z,89.10
2023-03-07T08:15:24.214Z,89.00
2023-03-07T08:17:52.282Z,88.80
2023-03-07T08:20:22.184Z,89.00
2023-03-07T08:22:50.563Z,88.40
2023-03-07T08:25:23.580Z,88.30
2023-03-07T08:27:54.974Z,88.50
2023-03-07T08:30:29.704Z,88.30
2023-03-07T08:32:57.780Z,88.30
2023-03-07T08:35:28.603Z,87.50
2023-03-07T08:38:00.398Z,87.50
2023-03-07T08:40:30.464Z,87.40
2023-03-07T08:42:59.689Z,87.90
2023-03-07T08:45:26.795Z,86.90
2023-03-07T08:47:55.935Z,87.00
2023-03-07T08:50:27.957Z,86.50
2023-03-07T08:52:55.035Z,86.30
2023-03-07T08:55:21.914Z,86.50
2023-03-07T08:57:48.882Z,86.80
2023-03-07T09:00:17.713Z,85.90
2023-03-07T09:03:59.877Z,84.90
2023-03-07T09:06:26.805Z,85.10
2023-03-07T09:08:53.720Z,85.30
2023-03-07T09:11:21.742Z,84.70
2023-03-07T09:13:52.827Z,84.30
2023-03-07T09:16:22.227Z,84.30
2023-03-07T09:18:50.226Z,84.30
2023-03-07T09:21:17.316Z,83.60
2023-03-07T09:23:44.231Z,83.40
2023-03-07T09:26:11.383Z,83.30
2023-03-07T09:28:38.253Z,83.70
2023-03-07T09:31:14.999Z,83.90
2023-03-07T09:33:43.480Z,82.50
2023-03-07T09:36:14.215Z,82.50
2023-03-07T09:38:41.533Z,82.00
2023-03-07T09:42:16.864Z,81.60
2023-03-07T09:45:13.775Z,81.10
2023-03-07T09:48:18.277Z,80.80
2023-03-07T09:51:11.838Z,79.50
2023-03-07T09:53:59.141Z,78.40
2023-03-07T09:56:46.177Z,77.20
2023-03-07T09:59:43.510Z,75.00
2023-03-07T10:02:43.472Z,73.50
2023-03-07T10:05:41.513Z,73.30
2023-03-07T10:08:19.899Z,72.80
2023-03-07T10:11:35.007Z,72.50
2023-03-07T10:14:50.928Z,72.00
2023-03-07T10:18:09.801Z,71.40
2023-03-07T10:21:35.326Z,71.80
2023-03-07T10:24:37.089Z,72.30
2023-03-07T10:27:09.565Z,70.40
2023-03-07T10:29:53.256Z,70.20
2023-03-07T10:32:51.561Z,68.20
2023-03-07T10:35:38.392Z,68.00
2023-03-07T10:38:40.184Z,64.90
2023-03-07T10:41:21.609Z,63.20
2023-03-07T10:43:52.441Z,61.30
2023-03-07T10:46:30.742Z,61.20
2023-03-07T10:49:09.585Z,62.20
2023-03-07T10:52:12.794Z,64.20
2023-03-07T10:54:39.953Z,64.60
2023-03-07T10:57:20.191Z,64.40
2023-03-07T10:59:49.973Z,64.50
2023-03-07T11:02:36.658Z,64.30
2023-03-07T11:05:40.581Z,64.50
2023-03-07T11:08:33.672Z,63.30
2023-03-07T11:11:05.001Z,63.20
2023-03-07T11:13:32.149Z,63.40
2023-03-07T11:16:21.300Z,63.30
2023-03-07T11:18:48.965Z,64.30
2023-03-07T11:21:36.015Z,64.10
2023-03-07T11:24:22.490Z,63.90
2023-03-07T11:26:56.610Z,64.20
2023-03-07T11:29:24.889Z,65.40
2023-03-07T11:32:20.686Z,65.90
2023-03-07T11:35:02.566Z,65.40
2023-03-07T11:38:07.487Z,65.80
2023-03-07T11:41:18.348Z,66.30
2023-03-07T11:44:22.973Z,66.60
2023-03-07T11:47:26.205Z,66.80
2023-03-07T11:50:32.398Z,66.30
2023-03-07T11:54:25.402Z,66.20
2023-03-07T11:57:09.056Z,65.20
2023-03-07T12:00:17.848Z,65.00
2023-03-07T12:03:24.922Z,64.80
2023-03-07T12:06:22.875Z,65.00
2023-03-07T12:09:37.689Z,65.40
2023-03-07T12:12:44.072Z,66.10
2023-03-07T12:15:57.304Z,65.70
2023-03-07T12:18:57.890Z,65.70
2023-03-07T12:22:13.501Z,66.30
2023-03-07T12:25:36.057Z,65.90
2023-03-07T12:28:18.040Z,65.80
2023-03-07T12:31:37.528Z,65.20
2023-03-07T12:34:10.930Z,65.10
2023-03-07T12:37:05.482Z,63.40
2023-03-07T12:40:13.982Z,63.60
2023-03-07T12:43:03.034Z,63.30
2023-03-07T12:45:47.350Z,63.00
2023-03-07T12:48:59.167Z,62.30
2023-03-07T12:51:40.328Z,63.10
2023-03-07T12:54:57.625Z,63.60
2023-03-07T12:57:40.382Z,64.00
2023-03-07T13:00:14.294Z,64.20
2023-03-07T13:02:58.190Z,64.30
2023-03-07T13:05:25.781Z,64.00
2023-03-07T13:07:55.657Z,64.20
2023-03-07T13:10:25.459Z,64.00
2023-03-07T13:12:53.387Z,64.50
2023-03-07T13:15:23.828Z,65.30
2023-03-07T13:17:50.572Z,65.70
2023-03-07T13:20:29.418Z,66.30
2023-03-07T13:23:10.757Z,65.80
2023-03-07T13:25:56.761Z,66.00
2023-03-07T13:28:39.564Z,66.40
2023-03-07T13:31:20.708Z,66.00
2023-03-07T13:33:50.495Z,65.90
2023-03-07T13:36:38.634Z,65.90
2023-03-07T13:39:38.548Z,65.50
2023-03-07T13:42:47.688Z,65.70
2023-03-07T13:45:39.526Z,65.50
2023-03-07T13:48:19.761Z,65.40
2023-03-07T13:50:49.353Z,65.80
2023-03-07T13:53:31.642Z,65.90
2023-03-07T13:56:17.208Z,66.40
2023-03-07T13:59:10.156Z,66.30
2023-03-07T14:01:58.473Z,66.20
2023-03-07T14:04:55.705Z,66.20
2023-03-07T14:07:42.971Z,65.40
2023-03-07T14:10:28.154Z,65.40
2023-03-07T14:13:40.989Z,65.40
2023-03-07T14:16:51.047Z,65.70
2023-03-07T14:20:14.154Z,65.60
2023-03-07T14:23:39.233Z,65.90
2023-03-07T14:26:40.285Z,66.10
2023-03-07T14:29:22.293Z,66.10
2023-03-07T14:31:56.730Z,65.90
2023-03-07T14:34:35.956Z,66.10
2023-03-07T14:37:18.599Z,65.80
2023-03-07T14:39:58.801Z,66.00
2023-03-07T14:43:09.606Z,65.10
2023-03-07T14:45:58.118Z,64.40
2023-03-07T14:48:54.573Z,63.90
2023-03-07T14:51:28.200Z,63.50
2023-03-07T14:53:57.602Z,63.40
2023-03-07T14:56:32.078Z,63.60
2023-03-07T14:59:03.458Z,63.20
2023-03-07T15:01:36.210Z,63.60
2023-03-07T15:04:27.850Z,63.20
2023-03-07T15:07:05.625Z,63.20
2023-03-07T15:09:34.349Z,62.40
2023-03-07T15:12:22.842Z,60.80
2023-03-07T15:15:01.200Z,60.10
2023-03-07T15:17:44.491Z,60.30
2023-03-07T15:20:23.142Z,60.70
2023-03-07T15:22:59.549Z,60.50
2023-03-07T15:25:26.817Z,60.40
2023-03-07T15:28:06.729Z,60.20
2023-03-07T15:30:38.322Z,60.90
2023-03-07T15:33:18.780Z,61.40
2023-03-07T15:36:12.249Z,61.90
2023-03-07T15:38:44.271Z,61.60
2023-03-07T15:41:33.618Z,61.90
2023-03-07T15:44:19.502Z,62.50
2023-03-07T15:47:00.606Z,61.00
2023-03-07T15:49:42.066Z,59.60
2023-03-07T15:52:41.782Z,59.70
2023-03-07T15:55:24.800Z,60.20
2023-03-07T15:58:03.609Z,60.90
2023-03-07T16:00:38.617Z,60.90
2023-03-07T16:03:27.472Z,59.00
2023-03-07T16:05:58.914Z,58.30
2023-03-07T16:08:26.044Z,58.70
2023-03-07T16:11:02.343Z,58.40
2023-03-07T16:13:43.976Z,58.30
2023-03-07T16:16:13.823Z,58.80
2023-03-07T16:18:42.867Z,60.10
2023-03-07T16:21:17.745Z,61.00
2023-03-07T16:23:45.999Z,61.70
2023-03-07T16:26:21.510Z,60.40
2023-03-07T16:28:50.580Z,59.80
2023-03-07T16:31:19.476Z,59.40
2023-03-07T16:33:47.761Z,59.50
2023-03-07T16:36:16.755Z,59.60
2023-03-07T16:38:45.668Z,60.60
2023-03-07T16:41:20.873Z,61.70
2023-03-07T16:43:57.730Z,62.50
2023-03-07T16:46:27.988Z,62.80
2023-03-07T16:48:54.938Z,62.80
2023-03-07T16:51:26.118Z,63.30
2023-03-07T16:53:53.400Z,63.90
2023-03-07T16:56:36.827Z,63.70
2023-03-07T16:59:04.302Z,63.50
2023-03-07T17:01:31.267Z,63.70
2023-03-07T17:03:58.144Z,63.70
2023-03-07T17:06:37.138Z,64.20
2023-03-07T17:09:12.454Z,64.30
2023-03-07T17:11:48.213Z,64.20
2023-03-07T17:14:18.934Z,64.60
2023-03-07T17:16:50.999Z,64.70
2023-03-07T17:19:31.819Z,64.90
2023-03-07T17:22:01.673Z,64.80
2023-03-07T17:24:30.109Z,64.70
2023-03-07T17:27:03.424Z,64.80
2023-03-07T17:29:49.833Z,64.80
2023-03-07T17:32:18.420Z,65.40
2023-03-07T17:34:45.296Z,65.10
2023-03-07T17:37:13.332Z,65.20
2023-03-07T17:39:40.953Z,65.40
2023-03-07T17:42:07.964Z,65.20
2023-03-07T17:44:34.956Z,65.20
2023-03-07T17:47:01.860Z,65.60
2023-03-07T17:49:38.265Z,65.60
2023-03-07T17:52:07.121Z,65.20
2023-03-07T17:54:34.140Z,65.60
2023-03-07T17:57:02.635Z,65.60
2023-03-07T17:59:32.617Z,65.80
2023-03-07T18:01:59.744Z,65.70
2023-03-07T18:04:29.098Z,65.90
2023-03-07T18:06:55.980Z,66.00
2023-03-07T18:09:23.268Z,66.00
2023-03-07T18:11:50.193Z,66.30
2023-03-07T18:14:17.435Z,66.40
2023-03-07T18:16:44.911Z,66.30
2023-03-07T18:19:25.341Z,66.40
2023-03-07T18:21:53.855Z,66.40
2023-03-07T18:24:29.686Z,66.40
2023-03-07T18:26:59.188Z,66.90
2023-03-07T18:29:28.206Z,66.80
2023-03-07T18:31:56.079Z,66.70
2023-03-07T18:34:24.598Z,66.60
2023-03-07T18:36:54.068Z,66.60
2023-03-07T18:39:23.521Z,66.50
2023-03-07T18:41:51.210Z,66.40
2023-03-07T18:44:18.502Z,66.60
2023-03-07T18:46:46.511Z,66.60
2023-03-07T18:49:13.573Z,67.10
2023-03-07T18:51:42.714Z,67.50
2023-03-07T18:54:10.430Z,67.50
2023-03-07T18:56:38.113Z,67.80
2023-03-07T18:59:05.101Z,68.00
2023-03-07T19:01:36.967Z,68.00
2023-03-07T19:04:05.644Z,68.10
2023-03-07T19:06:40.785Z,68.30
2023-03-07T19:09:16.272Z,68.10
2023-03-07T19:11:43.337Z,67.90
2023-03-07T19:14:10.849Z,68.10
2023-03-07T19:16:37.988Z,67.90
2023-03-07T19:19:05.448Z,67.90
2023-03-07T19:21:32.829Z,68.00
2023-03-07T19:24:03.773Z,68.10
2023-03-07T19:26:30.728Z,68.50
2023-03-07T19:28:58.608Z,68.40
2023-03-07T19:31:32.336Z,68.50
2023-03-07T19:34:04.930Z,68.60
2023-03-07T19:36:34.452Z,68.60
2023-03-07T19:39:02.090Z,68.80
2023-03-07T19:41:31.857Z,68.90
2023-03-07T19:44:01.212Z,69.20
2023-03-07T19:46:28.805Z,69.20
2023-03-07T19:48:56.019Z,69.30
2023-03-07T19:51:26.383Z,69.50
2023-03-07T19:53:57.520Z,69.80
2023-03-07T19:56:31.770Z,70.00
2023-03-07T19:59:02.425Z,70.20
2023-03-07T20:01:29.837Z,70.20
2023-03-07T20:03:57.408Z,70.40
2023-03-07T20:06:31.049Z,70.50
2023-03-07T20:09:00.577Z,70.50
2023-03-07T20:11:36.435Z,70.60
2023-03-07T20:14:05.592Z,70.80
2023-03-07T20:16:34.689Z,70.80
2023-03-07T20:19:09.475Z,70.60
2023-03-07T20:21:36.980Z,70.60
2023-03-07T20:24:05.068Z,70.50
2023-03-07T20:26:37.555Z,70.70
2023-03-07T20:29:10.133Z,70.80
2023-03-07T20:31:39.325Z,70.90
2023-03-07T20:34:07.124Z,70.90
2023-03-07T20:36:37.759Z,71.10
2023-03-07T20:39:14.220Z,71.20
2023-03-07T20:41:43.401Z,71.30
2023-03-07T20:44:14.790Z,71.50
2023-03-07T20:46:42.419Z,71.90
2023-03-07T20:49:14.901Z,72.30
2023-03-07T20:51:43.439Z,72.40
2023-03-07T20:54:17.876Z,72.50
2023-03-07T20:56:47.677Z,72.60
2023-03-07T20:59:18.768Z,72.80
2023-03-07T21:01:46.142Z,72.80
2023-03-07T21:04:17.489Z,72.80
2023-03-07T21:06:47.676Z,72.90
2023-03-07T21:09:18.250Z,73.20
2023-03-07T21:11:49.060Z,73.20
2023-03-07T21:14:19.363Z,73.40
2023-03-07T21:16:46.484Z,73.00
2023-03-07T21:19:14.181Z,73.10
2023-03-07T21:21:41.629Z,73.00
2023-03-07T21:24:12.161Z,72.90
2023-03-07T21:26:39.110Z,72.90
2023-03-07T21:29:08.725Z,73.00
2023-03-07T21:31:36.860Z,72.90
2023-03-07T21:34:13.290Z,72.70
2023-03-07T21:36:40.279Z,73.20
2023-03-07T21:39:09.758Z,72.50
2023-03-07T21:41:37.217Z,72.40
2023-03-07T21:44:05.943Z,72.40
2023-03-07T21:46:33.240Z,72.00
2023-03-07T21:49:02.573Z,71.70
2023-03-07T21:51:29.508Z,71.40
2023-03-07T21:53:56.718Z,71.50
2023-03-07T21:56:24.094Z,71.20
2023-03-07T21:58:52.285Z,71.00
2023-03-07T22:01:25.848Z,70.70
2023-03-07T22:03:59.306Z,70.70
2023-03-07T22:06:27.748Z,70.60
2023-03-07T22:08:55.135Z,70.10
2023-03-07T22:11:22.340Z,70.30
2023-03-07T22:13:49.764Z,69.60
2023-03-07T22:16:23.316Z,69.70
2023-03-07T22:18:56.503Z,69.70
2023-03-07T22:21:30.030Z,69.30
2023-03-07T22:23:59.718Z,69.10
2023-03-07T22:26:29.692Z,69.10
2023-03-07T22:28:57.646Z,69.40
2023-03-07T22:31:25.935Z,69.40
2023-03-07T22:33:52.984Z,69.30
2023-03-07T22:36:20.220Z,69.40
2023-03-07T22:38:47.262Z,69.20
2023-03-07T22:41:17.525Z,69.20
2023-03-07T22:43:44.632Z,69.00
2023-03-07T22:46:12.006Z,68.90
2023-03-07T22:48:39.706Z,69.00
2023-03-07T22:51:17.810Z,69.30
2023-03-07T22:53:45.773Z,69.20
2023-03-07T22:56:27.305Z,69.30
2023-03-07T22:58:55.010Z,69.10
2023-03-07T23:01:27.180Z,69.00
2023-03-07T23:03:57.644Z,69.00
2023-03-07T23:06:30.693Z,69.00
2023-03-07T23:08:59.737Z,68.80
2023-03-07T23:11:30.976Z,68.90
2023-03-07T23:13:58.668Z,69.10
2023-03-07T23:16:30.015Z,68.90
2023-03-07T23:18:59.107Z,68.90
2023-03-07T23:21:31.910Z,68.90
2023-03-07T23:24:01.473Z,68.80
2023-03-07T23:26:34.080Z,68.80
2023-03-07T23:29:02.329Z,68.90
2023-03-07T23:31:40.184Z,68.90
2023-03-07T23:34:18.725Z,69.00
2023-03-07T23:36:46.483Z,69.20
2023-03-07T23:39:15.152Z,69.30
2023-03-07T23:41:42.018Z,69.20
2023-03-07T23:44:10.381Z,69.10
2023-03-07T23:46:37.414Z,69.20
2023-03-07T23:49:04.336Z,69.30
2023-03-07T23:51:31.372Z,69.20
2023-03-07T23:53:58.236Z,69.30
2023-03-07T23:56:25.088Z,69.00
2023-03-07T23:58:53.206Z,68.90
